createdAt,value
2019-01-26T00:01:11.277Z,59.17
2019-01-26T00:03:44.747Z,55.23
2019-01-26T00:06:15.826Z,58.23
2019-01-26T00:08:47.236Z,54.43
2019-01-26T00:11:18.701Z,58.20
2019-01-26T00:13:54.708Z,62.57
2019-01-26T00:16:27.699Z,54.07
2019-01-26T00:18:59.525Z,56.97
2019-01-26T00:21:32.862Z,56.97
2019-01-26T00:24:06.038Z,53.70
2019-01-26T00:26:39.529Z,68.20
2019-01-26T00:29:11.595Z,57.37
2019-01-26T00:31:42.890Z,63.90
2019-01-26T00:34:14.321Z,57.07
2019-01-26T00:36:45.578Z,61.03
2019-01-26T00:39:19.097Z,64.03
2019-01-26T00:41:50.355Z,56.40
2019-01-26T00:44:21.844Z,55.17
2019-01-26T00:46:53.543Z,54.57
2019-01-26T00:49:24.881Z,57.87
2019-01-26T00:51:56.085Z,55.33
2019-01-26T00:54:27.295Z,54.33
2019-01-26T00:56:58.655Z,57.80
2019-01-26T00:59:29.923Z,56.80
2019-01-26T01:02:01.266Z,54.37
2019-01-26T01:04:32.646Z,51.23
2019-01-26T01:07:04.087Z,55.67
2019-01-26T01:09:36.885Z,55.60
2019-01-26T01:12:09.696Z,50.83
2019-01-26T01:14:40.918Z,53.83
2019-01-26T01:17:12.256Z,47.13
2019-01-26T01:19:43.551Z,57.10
2019-01-26T01:22:14.826Z,49.73
2019-01-26T01:24:45.983Z,47.97
2019-01-26T01:27:17.207Z,55.33
2019-01-26T01:29:48.468Z,47.93
2019-01-26T01:32:19.781Z,47.07
2019-01-26T01:34:52.896Z,52.43
2019-01-26T01:37:24.225Z,51.07
2019-01-26T01:39:56.056Z,59.87
2019-01-26T01:42:30.383Z,45.10
2019-01-26T01:45:01.798Z,50.57
2019-01-26T01:47:33.191Z,48.73
2019-01-26T01:50:08.797Z,41.53
2019-01-26T01:52:40.176Z,42.57
2019-01-26T01:55:11.682Z,36.73
2019-01-26T01:57:42.918Z,42.47
2019-01-26T02:00:19.957Z,38.27
2019-01-26T02:02:51.200Z,35.73
2019-01-26T02:05:22.477Z,35.80
2019-01-26T02:07:53.685Z,30.93
2019-01-26T02:10:25.474Z,28.80
2019-01-26T02:12:56.791Z,33.53
2019-01-26T02:15:28.054Z,27.27
2019-01-26T02:17:59.301Z,28.40
2019-01-26T02:20:30.519Z,24.17
2019-01-26T02:23:01.803Z,24.47
2019-01-26T02:25:33.027Z,24.23
2019-01-26T02:28:04.442Z,24.33
2019-01-26T02:30:35.636Z,21.27
2019-01-26T02:33:08.434Z,22.73
2019-01-26T02:35:39.687Z,24.50
2019-01-26T02:38:11.069Z,22.63
2019-01-26T02:40:42.278Z,24.10
2019-01-26T02:43:13.466Z,21.70
2019-01-26T02:45:44.851Z,21.10
2019-01-26T02:48:16.166Z,22.67
2019-01-26T02:50:47.421Z,22.90
2019-01-26T02:53:18.666Z,20.60
2019-01-26T02:55:50.001Z,21.00
2019-01-26T02:58:21.562Z,18.40
2019-01-26T03:00:52.903Z,21.20
2019-01-26T03:03:24.168Z,24.17
2019-01-26T03:05:55.412Z,20.30
2019-01-26T03:08:26.729Z,21.50
2019-01-26T03:10:58.020Z,22.20
2019-01-26T03:13:29.393Z,24.20
2019-01-26T03:16:00.560Z,16.30
2019-01-26T03:18:31.842Z,17.13
2019-01-26T03:21:03.041Z,16.57
2019-01-26T03:23:34.401Z,17.80
2019-01-26T03:26:05.601Z,16.53
2019-01-26T03:28:36.855Z,16.67
2019-01-26T03:31:08.066Z,15.73
2019-01-26T03:33:39.358Z,15.17
2019-01-26T03:36:10.610Z,18.97
2019-01-26T03:38:41.794Z,12.87
2019-01-26T03:41:13.090Z,13.10
2019-01-26T03:43:44.332Z,14.53
2019-01-26T03:46:15.581Z,13.97
2019-01-26T03:48:46.873Z,12.90
2019-01-26T03:51:18.114Z,14.20
2019-01-26T03:53:49.384Z,13.23
2019-01-26T03:56:20.531Z,14.23
2019-01-26T03:58:51.867Z,13.33
2019-01-26T04:01:23.331Z,14.67
2019-01-26T04:03:54.572Z,10.07
2019-01-26T04:06:25.838Z,9.00
2019-01-26T04:08:57.104Z,11.77
2019-01-26T04:11:28.472Z,11.20
2019-01-26T04:13:59.632Z,10.67
2019-01-26T04:16:31.000Z,10.13
2019-01-26T04:19:05.251Z,10.17
2019-01-26T04:21:36.523Z,10.33
2019-01-26T04:24:07.782Z,9.93
2019-01-26T04:26:39.001Z,11.37
2019-01-26T04:29:11.458Z,8.77
2019-01-26T04:31:42.690Z,11.57
2019-01-26T04:34:13.931Z,11.73
2019-01-26T04:36:45.166Z,9.77
2019-01-26T04:39:16.345Z,10.07
2019-01-26T04:41:47.934Z,10.90
2019-01-26T04:44:19.099Z,10.30
2019-01-26T04:46:51.868Z,12.97
2019-01-26T04:49:23.170Z,14.03
2019-01-26T04:51:54.445Z,10.40
2019-01-26T04:54:25.631Z,15.00
2019-01-26T04:56:57.012Z,14.03
2019-01-26T04:59:28.286Z,12.17
2019-01-26T05:01:59.545Z,12.43
2019-01-26T05:04:30.819Z,10.53
2019-01-26T05:07:02.088Z,16.33
2019-01-26T05:09:33.317Z,11.60
2019-01-26T05:12:04.561Z,10.73
2019-01-26T05:14:35.755Z,10.10
2019-01-26T05:17:07.069Z,12.00
2019-01-26T05:19:38.298Z,9.40
2019-01-26T05:22:10.024Z,14.63
2019-01-26T05:24:44.995Z,9.97
2019-01-26T05:27:16.291Z,10.03
2019-01-26T05:29:47.473Z,12.73
2019-01-26T05:32:19.088Z,11.47
2019-01-26T05:34:50.309Z,13.90
2019-01-26T05:37:21.557Z,8.53
2019-01-26T05:39:52.757Z,10.93
2019-01-26T05:42:24.054Z,14.07
2019-01-26T05:44:55.286Z,11.43
2019-01-26T05:47:26.602Z,10.83
2019-01-26T05:49:57.859Z,13.07
2019-01-26T05:52:29.034Z,13.13
2019-01-26T05:55:00.332Z,10.47
2019-01-26T05:57:31.509Z,13.73
2019-01-26T06:00:02.730Z,14.63
2019-01-26T06:02:34.070Z,12.03
2019-01-26T06:05:05.612Z,13.13
2019-01-26T06:07:36.893Z,12.80
2019-01-26T06:10:08.181Z,12.80
2019-01-26T06:12:39.608Z,13.90
2019-01-26T06:15:11.865Z,12.80
2019-01-26T06:17:43.090Z,13.87
2019-01-26T06:20:14.398Z,13.27
2019-01-26T06:22:45.712Z,13.03
2019-01-26T06:25:17.824Z,12.50
2019-01-26T06:27:49.177Z,11.80
2019-01-26T06:30:22.697Z,11.57
2019-01-26T06:32:53.942Z,9.50
2019-01-26T06:35:25.184Z,9.77
2019-01-26T06:37:56.734Z,9.33
2019-01-26T06:40:27.915Z,9.13
2019-01-26T06:42:59.124Z,8.67
2019-01-26T06:45:30.442Z,9.33
2019-01-26T06:48:02.230Z,9.67
2019-01-26T06:50:33.671Z,8.03
2019-01-26T06:53:04.887Z,9.17
2019-01-26T06:55:37.687Z,8.27
2019-01-26T06:58:08.854Z,8.60
2019-01-26T07:00:40.041Z,8.13
2019-01-26T07:03:11.265Z,8.57
2019-01-26T07:05:53.291Z,7.57
2019-01-26T07:08:24.774Z,8.63
2019-01-26T07:10:55.946Z,7.37
2019-01-26T07:13:27.190Z,7.57
2019-01-26T07:16:00.099Z,7.60
2019-01-26T07:18:31.363Z,7.80
2019-01-26T07:21:02.634Z,7.93
2019-01-26T07:23:33.909Z,8.47
2019-01-26T07:26:05.214Z,8.13
2019-01-26T07:28:36.443Z,7.60
2019-01-26T07:31:07.637Z,8.60
2019-01-26T07:33:38.837Z,8.17
2019-01-26T07:36:10.271Z,9.00
2019-01-26T07:38:41.549Z,7.67
2019-01-26T07:41:12.793Z,7.73
2019-01-26T07:43:43.985Z,10.33
2019-01-26T07:46:15.169Z,8.23
2019-01-26T07:48:46.410Z,9.60
2019-01-26T07:51:17.706Z,8.33
2019-01-26T07:53:48.977Z,12.33
2019-01-26T07:56:20.255Z,9.00
2019-01-26T07:58:51.491Z,8.47
2019-01-26T08:01:22.756Z,9.57
2019-01-26T08:03:54.034Z,9.37
2019-01-26T08:06:25.256Z,8.93
2019-01-26T08:08:56.528Z,10.00
2019-01-26T08:11:27.723Z,10.37
2019-01-26T08:13:59.049Z,10.43
2019-01-26T08:16:30.300Z,10.90
2019-01-26T08:19:01.556Z,10.27
2019-01-26T08:21:32.760Z,11.87
2019-01-26T08:24:03.973Z,10.13
2019-01-26T08:26:35.231Z,10.83
2019-01-26T08:29:06.506Z,9.87
2019-01-26T08:31:37.683Z,9.90
2019-01-26T08:34:08.872Z,11.13
2019-01-26T08:36:40.175Z,10.30
2019-01-26T08:39:11.495Z,10.10
2019-01-26T08:41:42.800Z,11.70
2019-01-26T08:44:14.269Z,11.20
2019-01-26T08:46:45.563Z,11.33
2019-01-26T08:49:16.804Z,10.97
2019-01-26T08:51:48.122Z,12.47
2019-01-26T08:54:21.620Z,12.23
2019-01-26T08:56:52.906Z,10.30
2019-01-26T08:59:24.135Z,12.50
2019-01-26T09:02:09.544Z,13.00
2019-01-26T09:04:40.814Z,15.97
2019-01-26T09:07:14.525Z,13.30
2019-01-26T09:09:45.908Z,17.63
2019-01-26T09:12:17.627Z,19.27
2019-01-26T09:14:48.947Z,13.87
2019-01-26T09:17:20.177Z,13.23
2019-01-26T09:19:53.861Z,12.87
2019-01-26T09:22:25.092Z,13.03
2019-01-26T09:24:56.422Z,13.27
2019-01-26T09:27:27.698Z,12.77
2019-01-26T09:29:58.953Z,13.87
2019-01-26T09:32:30.193Z,13.40
2019-01-26T09:35:01.449Z,12.97
2019-01-26T09:37:32.671Z,13.83
2019-01-26T09:40:04.095Z,13.30
2019-01-26T09:42:35.320Z,13.53
2019-01-26T09:45:09.765Z,12.33
2019-01-26T09:47:41.059Z,12.60
2019-01-26T09:50:12.656Z,12.83
2019-01-26T09:52:43.979Z,10.77
2019-01-26T09:55:15.387Z,10.83
2019-01-26T09:57:46.576Z,10.30
2019-01-26T10:00:18.706Z,8.97
2019-01-26T10:02:49.944Z,9.17
2019-01-26T10:05:21.265Z,8.57
2019-01-26T10:07:52.551Z,8.37
2019-01-26T10:10:23.863Z,8.50
2019-01-26T10:12:55.058Z,7.93
2019-01-26T10:15:26.963Z,8.53
2019-01-26T10:17:58.522Z,7.80
2019-01-26T10:20:31.680Z,7.47
2019-01-26T10:23:03.203Z,7.47
2019-01-26T10:25:34.665Z,7.67
2019-01-26T10:28:06.547Z,7.23
2019-01-26T10:30:43.033Z,7.20
2019-01-26T10:33:14.556Z,6.23
2019-01-26T10:36:17.234Z,7.03
2019-01-26T10:39:01.226Z,6.77
2019-01-26T10:41:52.960Z,6.20
2019-01-26T10:44:29.376Z,6.87
2019-01-26T10:47:01.602Z,7.10
2019-01-26T10:49:33.405Z,6.83
2019-01-26T10:52:06.086Z,6.17
2019-01-26T10:54:37.561Z,6.30
2019-01-26T10:57:09.086Z,5.93
2019-01-26T10:59:40.325Z,5.97
2019-01-26T11:02:11.864Z,7.00
2019-01-26T11:04:44.303Z,6.63
2019-01-26T11:07:15.934Z,5.83
2019-01-26T11:09:48.399Z,6.67
2019-01-26T11:12:19.995Z,6.07
2019-01-26T11:14:51.244Z,5.97
2019-01-26T11:17:22.558Z,6.53
2019-01-26T11:19:53.763Z,5.97
2019-01-26T11:22:25.031Z,6.17
2019-01-26T11:24:56.279Z,7.13
2019-01-26T11:27:27.505Z,6.37
2019-01-26T11:29:58.761Z,6.43
2019-01-26T11:32:30.202Z,6.40
2019-01-26T11:35:01.401Z,7.17
2019-01-26T11:37:32.706Z,6.50
2019-01-26T11:40:11.479Z,6.83
2019-01-26T11:42:42.762Z,6.70
2019-01-26T11:45:32.096Z,6.47
2019-01-26T11:48:04.544Z,7.10
2019-01-26T11:50:41.137Z,6.80
2019-01-26T11:53:12.403Z,7.67
2019-01-26T11:56:05.357Z,7.20
2019-01-26T11:58:36.760Z,6.67
2019-01-26T12:01:29.732Z,32.63
2019-01-26T12:04:28.780Z,12.70
2019-01-26T12:07:09.453Z,8.10
2019-01-26T12:09:40.673Z,7.70
2019-01-26T12:12:12.060Z,7.60
2019-01-26T12:14:43.192Z,8.07
2019-01-26T12:17:14.423Z,8.73
2019-01-26T12:19:45.560Z,8.57
2019-01-26T12:22:16.736Z,8.83
2019-01-26T12:24:47.999Z,7.30
2019-01-26T12:27:19.182Z,7.97
2019-01-26T12:29:50.616Z,8.93
2019-01-26T12:32:21.966Z,9.47
2019-01-26T12:34:53.298Z,10.03
2019-01-26T12:37:24.620Z,10.47
2019-01-26T12:39:55.812Z,9.40
2019-01-26T12:42:27.037Z,9.60
2019-01-26T12:44:58.197Z,10.47
2019-01-26T12:47:29.463Z,9.30
2019-01-26T12:50:02.330Z,10.30
2019-01-26T12:52:33.684Z,9.60
2019-01-26T12:55:05.460Z,10.17
2019-01-26T12:57:36.657Z,10.40
2019-01-26T13:00:11.210Z,10.00
2019-01-26T13:02:42.407Z,10.63
2019-01-26T13:05:13.731Z,10.60
2019-01-26T13:07:45.087Z,10.60
2019-01-26T13:10:23.252Z,10.67
2019-01-26T13:12:54.569Z,9.93
2019-01-26T13:15:25.808Z,10.07
2019-01-26T13:17:58.072Z,11.00
2019-01-26T13:20:29.399Z,10.27
2019-01-26T13:23:00.676Z,10.40
2019-01-26T13:25:32.187Z,10.33
2019-01-26T13:28:04.980Z,11.73
2019-01-26T13:30:36.363Z,13.83
2019-01-26T13:33:09.065Z,11.20
2019-01-26T13:35:40.910Z,10.40
2019-01-26T13:38:12.229Z,10.53
2019-01-26T13:40:43.746Z,10.63
2019-01-26T13:43:15.269Z,15.00
2019-01-26T13:45:46.422Z,11.60
2019-01-26T13:48:17.980Z,11.50
2019-01-26T13:50:49.389Z,10.83
2019-01-26T13:53:20.636Z,9.63
2019-01-26T13:55:52.140Z,9.40
2019-01-26T13:58:23.513Z,9.83
2019-01-26T14:00:54.746Z,9.63
2019-01-26T14:03:25.892Z,10.10
2019-01-26T14:05:57.160Z,9.80
2019-01-26T14:08:28.446Z,7.87
2019-01-26T14:10:59.750Z,7.80
2019-01-26T14:13:30.967Z,7.63
2019-01-26T14:16:03.377Z,7.73
2019-01-26T14:18:34.633Z,7.53
2019-01-26T14:21:05.919Z,7.63
2019-01-26T14:23:37.104Z,6.60
2019-01-26T14:26:08.357Z,6.13
2019-01-26T14:28:39.702Z,5.70
2019-01-26T14:31:10.901Z,5.63
2019-01-26T14:33:42.170Z,5.77
2019-01-26T14:36:13.286Z,5.93
2019-01-26T14:38:44.508Z,5.07
2019-01-26T14:41:15.793Z,5.10
2019-01-26T14:43:47.448Z,5.40
2019-01-26T14:46:18.962Z,5.13
2019-01-26T14:48:50.288Z,4.47
2019-01-26T14:51:21.587Z,5.67
2019-01-26T14:53:52.766Z,5.40
2019-01-26T14:56:24.188Z,4.97
2019-01-26T14:58:55.630Z,5.07
2019-01-26T15:01:26.898Z,6.60
2019-01-26T15:03:59.112Z,4.10
2019-01-26T15:06:30.575Z,4.90
2019-01-26T15:09:01.887Z,5.07
2019-01-26T15:11:35.013Z,5.30
2019-01-26T15:14:06.362Z,5.03
2019-01-26T15:16:37.531Z,5.30
2019-01-26T15:19:09.891Z,4.93
2019-01-26T15:21:41.093Z,5.90
2019-01-26T15:24:12.385Z,4.57
2019-01-26T15:26:43.645Z,5.63
2019-01-26T15:29:14.822Z,5.17
2019-01-26T15:31:46.260Z,5.33
2019-01-26T15:34:17.638Z,5.50
2019-01-26T15:36:49.109Z,5.07
2019-01-26T15:39:20.535Z,5.30
2019-01-26T15:41:51.839Z,5.33
2019-01-26T15:44:23.013Z,4.90
2019-01-26T15:46:54.215Z,5.27
2019-01-26T15:49:25.581Z,5.17
2019-01-26T15:51:56.942Z,5.20
2019-01-26T15:54:29.334Z,6.20
2019-01-26T15:57:00.688Z,5.70
2019-01-26T15:59:32.033Z,5.17
2019-01-26T16:02:03.326Z,5.53
2019-01-26T16:04:34.452Z,4.83
2019-01-26T16:07:05.740Z,5.47
2019-01-26T16:09:37.017Z,5.17
2019-01-26T16:12:08.136Z,5.73
2019-01-26T16:14:39.375Z,5.87
2019-01-26T16:17:10.700Z,5.33
2019-01-26T16:19:41.957Z,5.67
2019-01-26T16:22:13.237Z,4.53
2019-01-26T16:24:44.500Z,5.83
2019-01-26T16:27:16.750Z,5.07
2019-01-26T16:29:48.053Z,5.33
2019-01-26T16:32:19.348Z,5.47
2019-01-26T16:34:50.584Z,5.13
2019-01-26T16:37:21.891Z,5.37
2019-01-26T16:39:53.960Z,5.57
2019-01-26T16:42:26.868Z,5.17
2019-01-26T16:44:58.088Z,5.00
2019-01-26T16:47:29.459Z,6.07
2019-01-26T16:50:00.759Z,6.20
2019-01-26T16:52:33.649Z,6.13
2019-01-26T16:55:05.698Z,6.20
2019-01-26T16:57:37.474Z,5.47
2019-01-26T17:00:22.880Z,6.37
2019-01-26T17:02:54.116Z,5.80
2019-01-26T17:05:25.892Z,6.20
2019-01-26T17:07:57.395Z,7.20
2019-01-26T17:10:34.219Z,6.87
2019-01-26T17:13:04.946Z,6.30
2019-01-26T17:15:36.350Z,7.23
2019-01-26T17:18:13.670Z,7.60
2019-01-26T17:20:42.064Z,8.70
2019-01-26T17:23:13.298Z,8.47
2019-01-26T17:25:44.552Z,8.73
2019-01-26T17:28:16.041Z,11.23
2019-01-26T17:30:47.477Z,11.20
2019-01-26T17:33:18.802Z,12.40
2019-01-26T17:35:50.048Z,10.77
2019-01-26T17:38:21.484Z,11.17
2019-01-26T17:40:54.479Z,10.80
2019-01-26T17:43:25.572Z,12.57
2019-01-26T17:45:56.842Z,11.33
2019-01-26T17:48:28.062Z,11.60
2019-01-26T17:50:59.290Z,15.80
2019-01-26T17:53:30.506Z,12.70
2019-01-26T17:56:01.740Z,13.10
2019-01-26T17:58:33.066Z,15.53
2019-01-26T18:01:04.484Z,14.80
2019-01-26T18:03:37.047Z,17.03
2019-01-26T18:06:08.722Z,15.63
2019-01-26T18:08:40.012Z,20.10
2019-01-26T18:11:11.391Z,19.70
2019-01-26T18:13:42.769Z,17.73
2019-01-26T18:16:14.068Z,19.80
2019-01-26T18:18:45.512Z,19.70
2019-01-26T18:21:16.795Z,18.97
2019-01-26T18:23:48.060Z,18.53
2019-01-26T18:26:19.374Z,20.20
2019-01-26T18:28:50.759Z,20.80
2019-01-26T18:31:21.919Z,23.77
2019-01-26T18:33:53.231Z,22.10
2019-01-26T18:36:24.527Z,20.17
2019-01-26T18:38:55.802Z,24.03
2019-01-26T18:41:27.217Z,25.10
2019-01-26T18:43:59.666Z,25.87
2019-01-26T18:46:30.867Z,22.73
2019-01-26T18:49:02.025Z,23.17
2019-01-26T18:51:34.330Z,25.10
2019-01-26T18:54:05.726Z,27.17
2019-01-26T18:56:37.003Z,24.50
2019-01-26T18:59:08.336Z,22.80
2019-01-26T19:01:39.546Z,26.60
2019-01-26T19:04:19.579Z,24.90
2019-01-26T19:06:50.796Z,23.17
2019-01-26T19:09:22.556Z,23.07
2019-01-26T19:11:54.076Z,23.93
2019-01-26T19:14:25.450Z,25.83
2019-01-26T19:16:57.036Z,25.70
2019-01-26T19:19:28.804Z,23.50
2019-01-26T19:22:00.497Z,24.50
2019-01-26T19:24:31.739Z,21.83
2019-01-26T19:27:04.353Z,23.43
2019-01-26T19:29:40.431Z,22.63
2019-01-26T19:32:23.911Z,20.47
2019-01-26T19:34:55.161Z,18.97
2019-01-26T19:37:26.507Z,19.03
2019-01-26T19:42:56.564Z,21.57
2019-01-26T19:45:50.702Z,19.97
2019-01-26T19:48:47.684Z,16.93
2019-01-26T19:51:24.003Z,17.90
2019-01-26T19:53:58.265Z,23.13
2019-01-26T19:56:38.760Z,18.50
2019-01-26T19:59:18.851Z,18.00
2019-01-26T20:01:53.100Z,22.57
2019-01-26T20:04:24.283Z,16.33
2019-01-26T20:06:56.004Z,18.90
2019-01-26T20:09:27.161Z,18.23
2019-01-26T20:11:58.953Z,17.67
2019-01-26T20:14:30.308Z,19.07
2019-01-26T20:17:01.591Z,19.33
2019-01-26T20:19:32.812Z,18.47
2019-01-26T20:22:04.111Z,17.37
2019-01-26T20:24:35.366Z,20.67
2019-01-26T20:27:06.735Z,22.37
2019-01-26T20:29:38.033Z,18.03
2019-01-26T20:32:09.442Z,19.60
2019-01-26T20:34:40.676Z,17.70
2019-01-26T20:37:11.979Z,18.47
2019-01-26T20:39:43.246Z,18.87
2019-01-26T20:42:14.498Z,18.37
2019-01-26T20:44:45.665Z,16.90
2019-01-26T20:47:16.966Z,16.93
2019-01-26T20:49:48.182Z,16.37
2019-01-26T20:52:19.643Z,17.77
2019-01-26T20:54:51.002Z,21.07
2019-01-26T20:57:22.330Z,24.23
2019-01-26T20:59:53.671Z,18.83
2019-01-26T21:02:24.974Z,20.90
2019-01-26T21:04:56.353Z,21.77
2019-01-26T21:07:27.843Z,19.50
2019-01-26T21:09:59.464Z,21.97
2019-01-26T21:12:30.847Z,18.77
2019-01-26T21:15:04.849Z,20.47
2019-01-26T21:17:35.144Z,20.10
2019-01-26T21:20:07.812Z,17.30
2019-01-26T21:22:40.023Z,15.53
2019-01-26T21:25:11.786Z,18.17
2019-01-26T21:27:43.962Z,13.33
2019-01-26T21:30:18.245Z,11.97
2019-01-26T21:32:49.541Z,15.33
2019-01-26T21:35:20.760Z,13.20
2019-01-26T21:37:52.023Z,13.43
2019-01-26T21:40:25.323Z,13.27
2019-01-26T21:42:57.849Z,12.10
2019-01-26T21:45:29.181Z,14.90
2019-01-26T21:48:00.747Z,14.33
2019-01-26T21:50:32.222Z,14.40
2019-01-26T21:53:03.894Z,12.83
2019-01-26T21:55:35.327Z,14.00
2019-01-26T21:58:06.702Z,11.53
2019-01-26T22:00:38.114Z,12.50
2019-01-26T22:03:09.428Z,12.33
2019-01-26T22:05:40.612Z,12.93
2019-01-26T22:08:11.974Z,13.93
2019-01-26T22:10:43.250Z,10.67
2019-01-26T22:13:14.517Z,12.97
2019-01-26T22:15:45.871Z,15.57
2019-01-26T22:18:17.225Z,12.87
2019-01-26T22:20:48.421Z,12.97
2019-01-26T22:23:19.774Z,11.87
2019-01-26T22:25:51.140Z,13.00
2019-01-26T22:28:22.322Z,11.63
2019-01-26T22:30:53.726Z,11.87
2019-01-26T22:33:25.124Z,14.57
2019-01-26T22:35:56.387Z,11.77
2019-01-26T22:38:27.795Z,14.53
2019-01-26T22:40:59.100Z,11.63
2019-01-26T22:43:30.449Z,12.63
2019-01-26T22:46:01.957Z,11.97
2019-01-26T22:48:33.276Z,12.23
2019-01-26T22:51:04.682Z,11.83
2019-01-26T22:53:35.977Z,10.97
2019-01-26T22:56:07.351Z,11.37
2019-01-26T22:58:38.615Z,11.13
2019-01-26T23:01:28.984Z,11.30
2019-01-26T23:04:22.155Z,9.90
2019-01-26T23:07:08.266Z,9.53
2019-01-26T23:10:07.410Z,10.33
2019-01-26T23:13:02.615Z,9.93
2019-01-26T23:16:16.099Z,10.17
2019-01-26T23:19:17.919Z,10.13
2019-01-26T23:22:05.844Z,10.23
2019-01-26T23:25:17.026Z,9.77
2019-01-26T23:28:24.846Z,9.27
2019-01-26T23:31:16.907Z,9.83
2019-01-26T23:33:52.268Z,10.40
2019-01-26T23:36:23.671Z,11.30
2019-01-26T23:38:54.822Z,9.83
2019-01-26T23:41:26.078Z,10.53
2019-01-26T23:43:57.250Z,9.73
2019-01-26T23:46:28.494Z,10.20
2019-01-26T23:48:59.783Z,9.83
2019-01-26T23:51:30.986Z,9.73
2019-01-26T23:54:02.223Z,9.63
2019-01-26T23:56:33.408Z,9.77
2019-01-26T23:59:04.718Z,9.27
